Swinomish — WC5223 — position and weather

sailwx.info

Track history (hours):
 
Tides and Currents Weather Stations Pressure Air Temp Water Temp Dewpoint Dewpoint Depression Visibility Wind Speed Wind Dir Waves Ship Positions

Swinomish

Owner: DUNLAP TOWING CO, LA CONNER, WA. More information available from US FCC via Universal Licensing System and Coast Guard Vessel Documentation Center.

Last reported at 2015-Apr-01 08:29 UTC. Time now 2015-Apr-01 09:27 UTC.
Position N 48°24' W 122°30'.

Length 15 m; draft 3.5 m.

Type: Tug. MMSI: 366972050.

Date/timePositionNaut miles runAvg speedWind from/ knotsBaromVisibWave heightAir tempDewpointWater temp
2015-Apr-01 08:29N 48°24' W 122°30'0 0.0
2015-Mar-31 13:32N 48°24' W 122°30'0 0.0
2015-Mar-31 12:28N 48°24' W 122°30'0 0.0
2015-Mar-31 10:08N 48°24' W 122°30'0 0.0
2015-Mar-31 09:18N 48°24' W 122°30'0 0.0
2015-Mar-31 08:33N 48°24' W 122°30'0 0.0
2015-Mar-31 07:31N 48°24' W 122°30'0 0.0
2015-Mar-31 06:31N 48°24' W 122°30'0 0.0
2015-Mar-31 05:32N 48°24' W 122°30'0 0.0
2015-Mar-31 04:20N 48°24' W 122°30'0 0.0
2015-Mar-30 15:14N 48°24' W 122°30'3 0.3
2015-Mar-30 07:20N 48°22' W 122°32'17 9.4
2015-Mar-30 05:32N 48°05' W 122°27'1010.4
2015-Mar-30 04:33N 47°59' W 122°15'6 6.3
2015-Mar-30 03:33N 47°55' W 122°21'7 7.2
2015-Mar-30 02:33N 47°56' W 122°31'7 6.8
2015-Mar-30 01:33N 48°01' W 122°38'16 5.2
2015-Mar-29 22:26N 48°11' W 122°57'8 9.2
2015-Mar-29 21:32N 48°11' W 123°09'9 9.2
2015-Mar-29 20:33N 48°08' W 123°22'4 3.6
2015-Mar-29 19:33N 48°08' W 123°27'0 0.2
2015-Mar-29 18:33N 48°08' W 123°28'0 0.1
2015-Mar-29 17:33N 48°08' W 123°27'0 0.1
2015-Mar-29 16:33N 48°08' W 123°27'3 2.9
2015-Mar-29 15:33N 48°07' W 123°23'5 4.5
2015-Mar-29 14:33N 48°09' W 123°17'6 5.5
2015-Mar-29 13:33N 48°11' W 123°09'5 5.3
2015-Mar-29 12:33N 48°11' W 123°01'6 5.1
2015-Mar-29 11:28N 48°10' W 122°53'6 6.5
2015-Mar-29 10:31N 48°08' W 122°44'7 6.3
2015-Mar-29 09:22N 48°02' W 122°39'4 5.2
2015-Mar-29 08:32N 47°58' W 122°36'4 4.1
2015-Mar-29 07:33N 47°55' W 122°32'4 3.9
2015-Mar-29 06:33N 47°53' W 122°27'4 4.5
2015-Mar-29 05:33N 47°55' W 122°21'5 4.5
2015-Mar-29 04:33N 47°58' W 122°16'2 2.3
2015-Mar-29 03:33N 47°59' W 122°13'0 0.0
2015-Mar-29 02:33N 47°59' W 122°13'10 9.7
2015-Mar-29 01:33N 47°52' W 122°23'1212.0
2015-Mar-29 00:33N 47°41' W 122°29'1211.8
2015-Mar-28 23:33N 47°29' W 122°30'1212.2
2015-Mar-28 22:33N 47°17' W 122°33'1210.9
2015-Mar-28 21:28N 47°10' W 122°46'3 0.4
2015-Mar-28 13:34N 47°11' W 122°51'1 0.9
2015-Mar-28 12:29N 47°11' W 122°50'3 1.0
2015-Mar-28 09:07N 47°09' W 122°45'1 1.2
2015-Mar-28 08:33N 47°10' W 122°45'1 1.1
2015-Mar-28 07:29N 47°11' W 122°44'3 1.6
2015-Mar-28 05:33N 47°11' W 122°39'2 1.6
2015-Mar-28 04:33N 47°12' W 122°37'3 2.7
2015-Mar-28 03:34N 47°14' W 122°35'4 3.7
2015-Mar-28 02:33N 47°18' W 122°32'2 1.7
2015-Mar-28 01:33N 47°19' W 122°33'1 1.2
2015-Mar-28 00:34N 47°19' W 122°31'1 1.2
2015-Mar-27 23:33N 47°18' W 122°30'1 0.9
2015-Mar-27 22:33N 47°18' W 122°29'1 0.6
2015-Mar-27 21:34N 47°17' W 122°28'1 0.7
2015-Mar-27 20:33N 47°18' W 122°29'1 0.6
2015-Mar-27 19:34N 47°18' W 122°30'1 1.3
2015-Mar-27 18:33N 47°19' W 122°29'2 1.9
2015-Mar-27 17:34N 47°21' W 122°27'2 1.8
2015-Mar-27 16:34N 47°22' W 122°25'2 1.6
2015-Mar-27 15:33N 47°23' W 122°23'1 1.1
2015-Mar-27 14:34N 47°24' W 122°23'1 1.5
2015-Mar-27 13:34N 47°25' W 122°24'1 1.5
2015-Mar-27 12:34N 47°26' W 122°25'1 1.2
2015-Mar-27 11:34N 47°27' W 122°25'1 1.1
2015-Mar-27 10:34N 47°28' W 122°26'1 1.1
2015-Mar-27 09:33N 47°29' W 122°26'1 1.3
2015-Mar-27 08:33N 47°31' W 122°27'1 1.4
2015-Mar-27 07:34N 47°32' W 122°28'1 1.3
2015-Mar-27 06:33N 47°33' W 122°28'2 1.6
2015-Mar-27 05:34N 47°35' W 122°28'2 1.5
2015-Mar-27 04:34N 47°36' W 122°29'2 1.7
2015-Mar-27 03:34N 47°38' W 122°29'2 1.9
2015-Mar-27 02:33N 47°40' W 122°27'2 2.0
2015-Mar-27 01:33N 47°41' W 122°26'2 1.5
2015-Mar-27 00:34N 47°43' W 122°26'1 1.4
2015-Mar-26 23:33N 47°44' W 122°25'1 1.2
2015-Mar-26 22:33N 47°45' W 122°25'1 1.0
2015-Mar-26 21:34N 47°46' W 122°24'1 0.9
2015-Mar-26 20:34N 47°47' W 122°24'1 0.6
2015-Mar-26 19:33N 47°48' W 122°25'1 0.5
2015-Mar-26 18:33N 47°48' W 122°25'1 0.9
2015-Mar-26 17:33N 47°49' W 122°24'2 1.7
2015-Mar-26 16:34N 47°50' W 122°23'2 1.6
2015-Mar-26 15:33N 47°52' W 122°21'1 1.4
2015-Mar-26 14:34N 47°53' W 122°21'1 1.3
2015-Mar-26 13:34N 47°54' W 122°21'2 1.6
2015-Mar-26 12:33N 47°56' W 122°20'2 1.6
2015-Mar-26 11:33N 47°57' W 122°19'2 1.6
2015-Mar-26 10:34N 47°58' W 122°17'0 0.5
2015-Mar-26 09:34N 47°58' W 122°17'0 0.1
2015-Mar-26 08:34N 47°58' W 122°17'0 0.2
2015-Mar-26 07:33N 47°58' W 122°18'0 0.3
2015-Mar-26 06:34N 47°58' W 122°17'0 0.3
2015-Mar-26 05:33N 47°58' W 122°17'0 0.0
2015-Mar-26 04:34N 47°58' W 122°17'0 0.3
2015-Mar-26 03:33N 47°58' W 122°16'0 0.4
2015-Mar-26 02:33N 47°58' W 122°17'2 1.6
2015-Mar-26 01:33N 47°57' W 122°19'2 1.9
2015-Mar-26 00:33N 47°55' W 122°20'2 1.8
2015-Mar-25 23:33N 47°54' W 122°21'2 1.6
2015-Mar-25 22:34N 47°52' W 122°21'1 1.1
2015-Mar-25 21:33N 47°51' W 122°22'1 1.2
2015-Mar-25 20:34N 47°50' W 122°23'0 0.5
2015-Mar-25 19:34N 47°51' W 122°23'1 0.7
2015-Mar-25 18:33N 47°51' W 122°22'1 0.7
2015-Mar-25 17:33N 47°50' W 122°22'1 0.9
2015-Mar-25 16:34N 47°50' W 122°23'1 1.3
2015-Mar-25 15:33N 47°51' W 122°22'2 1.7
2015-Mar-25 14:34N 47°52' W 122°21'1 1.5
2015-Mar-25 13:33N 47°54' W 122°20'2 1.8
2015-Mar-25 12:34N 47°55' W 122°20'2 2.0
2015-Mar-25 11:34N 47°57' W 122°19'2 1.9
2015-Mar-25 10:34N 47°58' W 122°16'1 0.6
2015-Mar-25 09:34N 47°59' W 122°15'1 1.4
2015-Mar-25 08:34N 47°59' W 122°13'1 1.2
2015-Mar-25 07:33N 47°59' W 122°15'2 2.3
2015-Mar-25 06:33N 48°00' W 122°17'2 1.9
2015-Mar-25 05:32N 48°02' W 122°20'2 1.7
2015-Mar-25 04:32N 48°02' W 122°22'2 1.7
2015-Mar-25 03:33N 48°03' W 122°24'2 1.6
2015-Mar-25 02:34N 48°05' W 122°25'2 1.8
2015-Mar-25 01:33N 48°06' W 122°28'2 1.8
2015-Mar-25 00:30N 48°07' W 122°30'9 2.0
2015-Mar-24 20:05N 48°15' W 122°33'2 2.5
2015-Mar-24 19:19N 48°17' W 122°31'2 2.9
2015-Mar-24 18:33N 48°19' W 122°30'2 2.1
2015-Mar-24 17:32N 48°20' W 122°32'1 1.5
2015-Mar-24 16:32N 48°22' W 122°33'1 0.9
2015-Mar-24 15:28N 48°22' W 122°32'0 0.0
2015-Mar-24 14:33N 48°22' W 122°32'2 2.3
2015-Mar-24 13:33N 48°24' W 122°30'0 0.0
2015-Mar-24 12:33N 48°24' W 122°30'0 0.0
2015-Mar-24 11:33N 48°24' W 122°30'0 0.0
2015-Mar-24 09:10N 48°24' W 122°30'0 0.0
2015-Mar-24 08:33N 48°24' W 122°30'0 0.0
2015-Mar-24 07:34N 48°24' W 122°30'0 0.0
2015-Mar-24 06:33N 48°24' W 122°30'0 0.0
2015-Mar-24 05:32N 48°24' W 122°30'8 6.6
2015-Mar-24 04:16N 48°16' W 122°32'11 9.6
2015-Mar-24 03:09N 48°05' W 122°27'710.7
2015-Mar-24 02:28N 48°01' W 122°18'4 4.5
2015-Mar-24 01:33N 47°59' W 122°13'0 0.2
2015-Mar-24 00:33N 47°59' W 122°13'1 0.7
2015-Mar-23 23:34N 47°59' W 122°14'1 1.2
2015-Mar-23 22:34N 47°59' W 122°16'2 1.5
2015-Mar-23 21:33N 48°00' W 122°17'2 1.5
2015-Mar-23 20:20N 48°02' W 122°18'2 2.1
2015-Mar-23 19:33N 48°02' W 122°21'2 2.1
2015-Mar-23 18:31N 48°03' W 122°23'2 2.0
2015-Mar-23 17:34N 48°05' W 122°26'12 1.9
2015-Mar-23 11:30N 48°15' W 122°34'2 2.1
2015-Mar-23 10:33N 48°16' W 122°32'2 2.1
2015-Mar-23 09:33N 48°18' W 122°30'4 3.6
2015-Mar-23 08:29N 48°21' W 122°33'3 2.5
2015-Mar-23 07:16N 48°24' W 122°35'2 1.1
2015-Mar-23 05:31N 48°26' W 122°34'0 0.2
2015-Mar-23 04:34N 48°26' W 122°34'4 3.5
2015-Mar-23 03:33N 48°24' W 122°30'0 0.1
2015-Mar-23 02:32N 48°24' W 122°30'0 0.0
2015-Mar-23 01:30N 48°24' W 122°30'3 2.8
2015-Mar-23 00:34N 48°27' W 122°30'6 6.5
2015-Mar-22 23:34N 48°31' W 122°37'7 6.2
2015-Mar-22 22:25N 48°24' W 122°38'3 3.7
2015-Mar-22 21:33N 48°26' W 122°34'3 1.6
2015-Mar-22 19:23N 48°24' W 122°38'1 1.1
2015-Mar-22 18:32N 48°25' W 122°40'0 0.4
2015-Mar-22 17:33N 48°25' W 122°40'1 1.5
2015-Mar-22 16:33N 48°26' W 122°42'3 3.4
2015-Mar-22 15:33N 48°29' W 122°44'2 1.7
2015-Mar-22 14:34N 48°30' W 122°45'1 1.0
2015-Mar-22 13:33N 48°31' W 122°46'0 0.3
2015-Mar-22 12:33N 48°31' W 122°46'1 1.1
2015-Mar-22 11:33N 48°32' W 122°48'1 0.6
2015-Mar-22 10:33N 48°32' W 122°49'1 1.4
2015-Mar-22 09:34N 48°31' W 122°51'0 0.1
2015-Mar-22 08:34N 48°31' W 122°51'  
Track history (hours):
 
Tides and Currents Weather Stations Pressure Air Temp Water Temp Dewpoint Dewpoint Depression Visibility Wind Speed Wind Dir Waves Ship Positions

Swinomish

Owner: DUNLAP TOWING CO, LA CONNER, WA. More information available from US FCC via Universal Licensing System and Coast Guard Vessel Documentation Center.

Last reported at 2015-Apr-01 08:29 UTC. Time now 2015-Apr-01 09:27 UTC.
Position N 48°24' W 122°30'.

Length 15 m; draft 3.5 m.

Type: Tug. MMSI: 366972050.

Date/timePositionNaut miles runAvg speedWind from/ knotsBaromVisibWave heightAir tempDewpointWater temp
2015-Apr-01 08:29N 48°24' W 122°30'0 0.0
2015-Mar-31 13:32N 48°24' W 122°30'0 0.0
2015-Mar-31 12:28N 48°24' W 122°30'0 0.0
2015-Mar-31 10:08N 48°24' W 122°30'0 0.0
2015-Mar-31 09:18N 48°24' W 122°30'0 0.0
2015-Mar-31 08:33N 48°24' W 122°30'0 0.0
2015-Mar-31 07:31N 48°24' W 122°30'0 0.0
2015-Mar-31 06:31N 48°24' W 122°30'0 0.0
2015-Mar-31 05:32N 48°24' W 122°30'0 0.0
2015-Mar-31 04:20N 48°24' W 122°30'0 0.0
2015-Mar-30 15:14N 48°24' W 122°30'3 0.3
2015-Mar-30 07:20N 48°22' W 122°32'17 9.4
2015-Mar-30 05:32N 48°05' W 122°27'1010.4
2015-Mar-30 04:33N 47°59' W 122°15'6 6.3
2015-Mar-30 03:33N 47°55' W 122°21'7 7.2
2015-Mar-30 02:33N 47°56' W 122°31'7 6.8
2015-Mar-30 01:33N 48°01' W 122°38'16 5.2
2015-Mar-29 22:26N 48°11' W 122°57'8 9.2
2015-Mar-29 21:32N 48°11' W 123°09'9 9.2
2015-Mar-29 20:33N 48°08' W 123°22'4 3.6
2015-Mar-29 19:33N 48°08' W 123°27'0 0.2
2015-Mar-29 18:33N 48°08' W 123°28'0 0.1
2015-Mar-29 17:33N 48°08' W 123°27'0 0.1
2015-Mar-29 16:33N 48°08' W 123°27'3 2.9
2015-Mar-29 15:33N 48°07' W 123°23'5 4.5
2015-Mar-29 14:33N 48°09' W 123°17'6 5.5
2015-Mar-29 13:33N 48°11' W 123°09'5 5.3
2015-Mar-29 12:33N 48°11' W 123°01'6 5.1
2015-Mar-29 11:28N 48°10' W 122°53'6 6.5
2015-Mar-29 10:31N 48°08' W 122°44'7 6.3
2015-Mar-29 09:22N 48°02' W 122°39'4 5.2
2015-Mar-29 08:32N 47°58' W 122°36'4 4.1
2015-Mar-29 07:33N 47°55' W 122°32'4 3.9
2015-Mar-29 06:33N 47°53' W 122°27'4 4.5
2015-Mar-29 05:33N 47°55' W 122°21'5 4.5
2015-Mar-29 04:33N 47°58' W 122°16'2 2.3
2015-Mar-29 03:33N 47°59' W 122°13'0 0.0
2015-Mar-29 02:33N 47°59' W 122°13'10 9.7
2015-Mar-29 01:33N 47°52' W 122°23'1212.0
2015-Mar-29 00:33N 47°41' W 122°29'1211.8
2015-Mar-28 23:33N 47°29' W 122°30'1212.2
2015-Mar-28 22:33N 47°17' W 122°33'1210.9
2015-Mar-28 21:28N 47°10' W 122°46'3 0.4
2015-Mar-28 13:34N 47°11' W 122°51'1 0.9
2015-Mar-28 12:29N 47°11' W 122°50'3 1.0
2015-Mar-28 09:07N 47°09' W 122°45'1 1.2
2015-Mar-28 08:33N 47°10' W 122°45'1 1.1
2015-Mar-28 07:29N 47°11' W 122°44'3 1.6
2015-Mar-28 05:33N 47°11' W 122°39'2 1.6
2015-Mar-28 04:33N 47°12' W 122°37'3 2.7
2015-Mar-28 03:34N 47°14' W 122°35'4 3.7
2015-Mar-28 02:33N 47°18' W 122°32'2 1.7
2015-Mar-28 01:33N 47°19' W 122°33'1 1.2
2015-Mar-28 00:34N 47°19' W 122°31'1 1.2
2015-Mar-27 23:33N 47°18' W 122°30'1 0.9
2015-Mar-27 22:33N 47°18' W 122°29'1 0.6
2015-Mar-27 21:34N 47°17' W 122°28'1 0.7
2015-Mar-27 20:33N 47°18' W 122°29'1 0.6
2015-Mar-27 19:34N 47°18' W 122°30'1 1.3
2015-Mar-27 18:33N 47°19' W 122°29'2 1.9
2015-Mar-27 17:34N 47°21' W 122°27'2 1.8
2015-Mar-27 16:34N 47°22' W 122°25'2 1.6
2015-Mar-27 15:33N 47°23' W 122°23'1 1.1
2015-Mar-27 14:34N 47°24' W 122°23'1 1.5
2015-Mar-27 13:34N 47°25' W 122°24'1 1.5
2015-Mar-27 12:34N 47°26' W 122°25'1 1.2
2015-Mar-27 11:34N 47°27' W 122°25'1 1.1
2015-Mar-27 10:34N 47°28' W 122°26'1 1.1
2015-Mar-27 09:33N 47°29' W 122°26'1 1.3
2015-Mar-27 08:33N 47°31' W 122°27'1 1.4
2015-Mar-27 07:34N 47°32' W 122°28'1 1.3
2015-Mar-27 06:33N 47°33' W 122°28'2 1.6
2015-Mar-27 05:34N 47°35' W 122°28'2 1.5
2015-Mar-27 04:34N 47°36' W 122°29'2 1.7
2015-Mar-27 03:34N 47°38' W 122°29'2 1.9
2015-Mar-27 02:33N 47°40' W 122°27'2 2.0
2015-Mar-27 01:33N 47°41' W 122°26'2 1.5
2015-Mar-27 00:34N 47°43' W 122°26'1 1.4
2015-Mar-26 23:33N 47°44' W 122°25'1 1.2
2015-Mar-26 22:33N 47°45' W 122°25'1 1.0
2015-Mar-26 21:34N 47°46' W 122°24'1 0.9
2015-Mar-26 20:34N 47°47' W 122°24'1 0.6
2015-Mar-26 19:33N 47°48' W 122°25'1 0.5
2015-Mar-26 18:33N 47°48' W 122°25'1 0.9
2015-Mar-26 17:33N 47°49' W 122°24'2 1.7
2015-Mar-26 16:34N 47°50' W 122°23'2 1.6
2015-Mar-26 15:33N 47°52' W 122°21'1 1.4
2015-Mar-26 14:34N 47°53' W 122°21'1 1.3
2015-Mar-26 13:34N 47°54' W 122°21'2 1.6
2015-Mar-26 12:33N 47°56' W 122°20'2 1.6
2015-Mar-26 11:33N 47°57' W 122°19'2 1.6
2015-Mar-26 10:34N 47°58' W 122°17'0 0.5
2015-Mar-26 09:34N 47°58' W 122°17'0 0.1
2015-Mar-26 08:34N 47°58' W 122°17'0 0.2
2015-Mar-26 07:33N 47°58' W 122°18'0 0.3
2015-Mar-26 06:34N 47°58' W 122°17'0 0.3
2015-Mar-26 05:33N 47°58' W 122°17'0 0.0
2015-Mar-26 04:34N 47°58' W 122°17'0 0.3
2015-Mar-26 03:33N 47°58' W 122°16'0 0.4
2015-Mar-26 02:33N 47°58' W 122°17'2 1.6
2015-Mar-26 01:33N 47°57' W 122°19'2 1.9
2015-Mar-26 00:33N 47°55' W 122°20'2 1.8
2015-Mar-25 23:33N 47°54' W 122°21'2 1.6
2015-Mar-25 22:34N 47°52' W 122°21'1 1.1
2015-Mar-25 21:33N 47°51' W 122°22'1 1.2
2015-Mar-25 20:34N 47°50' W 122°23'0 0.5
2015-Mar-25 19:34N 47°51' W 122°23'1 0.7
2015-Mar-25 18:33N 47°51' W 122°22'1 0.7
2015-Mar-25 17:33N 47°50' W 122°22'1 0.9
2015-Mar-25 16:34N 47°50' W 122°23'1 1.3
2015-Mar-25 15:33N 47°51' W 122°22'2 1.7
2015-Mar-25 14:34N 47°52' W 122°21'1 1.5
2015-Mar-25 13:33N 47°54' W 122°20'2 1.8
2015-Mar-25 12:34N 47°55' W 122°20'2 2.0
2015-Mar-25 11:34N 47°57' W 122°19'2 1.9
2015-Mar-25 10:34N 47°58' W 122°16'1 0.6
2015-Mar-25 09:34N 47°59' W 122°15'1 1.4
2015-Mar-25 08:34N 47°59' W 122°13'1 1.2
2015-Mar-25 07:33N 47°59' W 122°15'2 2.3
2015-Mar-25 06:33N 48°00' W 122°17'2 1.9
2015-Mar-25 05:32N 48°02' W 122°20'2 1.7
2015-Mar-25 04:32N 48°02' W 122°22'2 1.7
2015-Mar-25 03:33N 48°03' W 122°24'2 1.6
2015-Mar-25 02:34N 48°05' W 122°25'2 1.8
2015-Mar-25 01:33N 48°06' W 122°28'2 1.8
2015-Mar-25 00:30N 48°07' W 122°30'9 2.0
2015-Mar-24 20:05N 48°15' W 122°33'2 2.5
2015-Mar-24 19:19N 48°17' W 122°31'2 2.9
2015-Mar-24 18:33N 48°19' W 122°30'2 2.1
2015-Mar-24 17:32N 48°20' W 122°32'1 1.5
2015-Mar-24 16:32N 48°22' W 122°33'1 0.9
2015-Mar-24 15:28N 48°22' W 122°32'0 0.0
2015-Mar-24 14:33N 48°22' W 122°32'2 2.3
2015-Mar-24 13:33N 48°24' W 122°30'0 0.0
2015-Mar-24 12:33N 48°24' W 122°30'0 0.0
2015-Mar-24 11:33N 48°24' W 122°30'0 0.0
2015-Mar-24 09:10N 48°24' W 122°30'0 0.0
2015-Mar-24 08:33N 48°24' W 122°30'0 0.0
2015-Mar-24 07:34N 48°24' W 122°30'0 0.0
2015-Mar-24 06:33N 48°24' W 122°30'0 0.0
2015-Mar-24 05:32N 48°24' W 122°30'8 6.6
2015-Mar-24 04:16N 48°16' W 122°32'11 9.6
2015-Mar-24 03:09N 48°05' W 122°27'710.7
2015-Mar-24 02:28N 48°01' W 122°18'4 4.5
2015-Mar-24 01:33N 47°59' W 122°13'0 0.2
2015-Mar-24 00:33N 47°59' W 122°13'1 0.7
2015-Mar-23 23:34N 47°59' W 122°14'1 1.2
2015-Mar-23 22:34N 47°59' W 122°16'2 1.5
2015-Mar-23 21:33N 48°00' W 122°17'2 1.5
2015-Mar-23 20:20N 48°02' W 122°18'2 2.1
2015-Mar-23 19:33N 48°02' W 122°21'2 2.1
2015-Mar-23 18:31N 48°03' W 122°23'2 2.0
2015-Mar-23 17:34N 48°05' W 122°26'12 1.9
2015-Mar-23 11:30N 48°15' W 122°34'2 2.1
2015-Mar-23 10:33N 48°16' W 122°32'2 2.1
2015-Mar-23 09:33N 48°18' W 122°30'4 3.6
2015-Mar-23 08:29N 48°21' W 122°33'3 2.5
2015-Mar-23 07:16N 48°24' W 122°35'2 1.1
2015-Mar-23 05:31N 48°26' W 122°34'0 0.2
2015-Mar-23 04:34N 48°26' W 122°34'4 3.5
2015-Mar-23 03:33N 48°24' W 122°30'0 0.1
2015-Mar-23 02:32N 48°24' W 122°30'0 0.0
2015-Mar-23 01:30N 48°24' W 122°30'3 2.8
2015-Mar-23 00:34N 48°27' W 122°30'6 6.5
2015-Mar-22 23:34N 48°31' W 122°37'7 6.2
2015-Mar-22 22:25N 48°24' W 122°38'3 3.7
2015-Mar-22 21:33N 48°26' W 122°34'3 1.6
2015-Mar-22 19:23N 48°24' W 122°38'1 1.1
2015-Mar-22 18:32N 48°25' W 122°40'0 0.4
2015-Mar-22 17:33N 48°25' W 122°40'1 1.5
2015-Mar-22 16:33N 48°26' W 122°42'3 3.4
2015-Mar-22 15:33N 48°29' W 122°44'2 1.7
2015-Mar-22 14:34N 48°30' W 122°45'1 1.0
2015-Mar-22 13:33N 48°31' W 122°46'0 0.3
2015-Mar-22 12:33N 48°31' W 122°46'1 1.1
2015-Mar-22 11:33N 48°32' W 122°48'1 0.6
2015-Mar-22 10:33N 48°32' W 122°49'1 1.4
2015-Mar-22 09:34N 48°31' W 122°51'0 0.1
2015-Mar-22 08:34N 48°31' W 122°51'  

Dump ship's entire track history